sensor_id;sensor_type;location;lat;lon;timestamp;pressure;altitude;pressure_sealevel;temperature;humidity
59686;BME280;45554;51.096;16.976;2022-09-12T00:01:32;100171.81;;;13.45;91.80
59686;BME280;45554;51.096;16.976;2022-09-12T00:04:01;100171.47;;;13.45;91.67
59686;BME280;45554;51.096;16.976;2022-09-12T00:06:32;100170.20;;;13.46;91.57
59686;BME280;45554;51.096;16.976;2022-09-12T00:09:07;100173.83;;;13.47;91.54
59686;BME280;45554;51.096;16.976;2022-09-12T00:11:42;100175.86;;;13.48;91.59
59686;BME280;45554;51.096;16.976;2022-09-12T00:14:14;100174.05;;;13.49;91.54
59686;BME280;45554;51.096;16.976;2022-09-12T00:16:43;100175.33;;;13.51;91.32
59686;BME280;45554;51.096;16.976;2022-09-12T00:19:15;100175.90;;;13.53;91.30
59686;BME280;45554;51.096;16.976;2022-09-12T00:21:44;100170.86;;;13.54;91.13
59686;BME280;45554;51.096;16.976;2022-09-12T00:24:13;100176.90;;;13.56;91.06
59686;BME280;45554;51.096;16.976;2022-09-12T00:26:42;100178.73;;;13.57;91.02
59686;BME280;45554;51.096;16.976;2022-09-12T00:29:19;100181.65;;;13.58;90.88
59686;BME280;45554;51.096;16.976;2022-09-12T00:31:48;100179.21;;;13.61;90.87
59686;BME280;45554;51.096;16.976;2022-09-12T00:34:17;100181.17;;;13.63;90.91
59686;BME280;45554;51.096;16.976;2022-09-12T00:36:45;100186.34;;;13.64;90.80
59686;BME280;45554;51.096;16.976;2022-09-12T00:39:14;100187.34;;;13.65;90.70
59686;BME280;45554;51.096;16.976;2022-09-12T00:41:46;100190.16;;;13.66;90.53
59686;BME280;45554;51.096;16.976;2022-09-12T00:46:49;100197.11;;;13.67;90.40
59686;BME280;45554;51.096;16.976;2022-09-12T00:49:36;100194.70;;;13.66;90.30
59686;BME280;45554;51.096;16.976;2022-09-12T00:52:21;100196.73;;;13.65;90.15
59686;BME280;45554;51.096;16.976;2022-09-12T00:57:44;100194.27;;;13.65;90.09
59686;BME280;45554;51.096;16.976;2022-09-12T01:00:21;100193.41;;;13.64;90.03
59686;BME280;45554;51.096;16.976;2022-09-12T01:02:59;100197.48;;;13.64;89.91
59686;BME280;45554;51.096;16.976;2022-09-12T01:06:07;100195.75;;;13.64;89.72
59686;BME280;45554;51.096;16.976;2022-09-12T01:08:38;100200.45;;;13.62;89.62
59686;BME280;45554;51.096;16.976;2022-09-12T01:11:10;100200.00;;;13.61;89.60
59686;BME280;45554;51.096;16.976;2022-09-12T01:13:40;100201.84;;;13.59;89.61
59686;BME280;45554;51.096;16.976;2022-09-12T01:16:12;100201.27;;;13.57;89.46
59686;BME280;45554;51.096;16.976;2022-09-12T01:24:53;100202.23;;;13.51;89.34
59686;BME280;45554;51.096;16.976;2022-09-12T01:27:55;100200.83;;;13.48;89.44
59686;BME280;45554;51.096;16.976;2022-09-12T01:31:20;100200.98;;;13.47;89.47
59686;BME280;45554;51.096;16.976;2022-09-12T01:34:19;100200.30;;;13.43;89.44
59686;BME280;45554;51.096;16.976;2022-09-12T01:37:16;100200.14;;;13.40;89.46
59686;BME280;45554;51.096;16.976;2022-09-12T01:40:19;100201.43;;;13.39;89.41
59686;BME280;45554;51.096;16.976;2022-09-12T01:46:05;100196.34;;;13.39;89.31
59686;BME280;45554;51.096;16.976;2022-09-12T01:48:38;100195.34;;;13.38;89.23
59686;BME280;45554;51.096;16.976;2022-09-12T01:51:18;100199.77;;;13.38;89.18
59686;BME280;45554;51.096;16.976;2022-09-12T01:54:33;100201.08;;;13.36;89.05
59686;BME280;45554;51.096;16.976;2022-09-12T01:57:15;100195.11;;;13.34;89.06
59686;BME280;45554;51.096;16.976;2022-09-12T01:59:50;100202.42;;;13.35;89.07
59686;BME280;45554;51.096;16.976;2022-09-12T02:02:32;100200.23;;;13.34;89.07
59686;BME280;45554;51.096;16.976;2022-09-12T02:05:16;100207.77;;;13.34;89.09
59686;BME280;45554;51.096;16.976;2022-09-12T02:07:54;100208.73;;;13.33;89.14
59686;BME280;45554;51.096;16.976;2022-09-12T02:10:25;100205.14;;;13.31;89.12
59686;BME280;45554;51.096;16.976;2022-09-12T02:13:17;100203.45;;;13.30;89.12
59686;BME280;45554;51.096;16.976;2022-09-12T02:15:55;100197.21;;;13.29;89.07
59686;BME280;45554;51.096;16.976;2022-09-12T02:18:25;100194.94;;;13.28;89.27
59686;BME280;45554;51.096;16.976;2022-09-12T02:20:57;100194.12;;;13.27;89.18
59686;BME280;45554;51.096;16.976;2022-09-12T02:23:28;100194.13;;;13.25;88.99
59686;BME280;45554;51.096;16.976;2022-09-12T02:26:24;100196.20;;;13.23;89.12
59686;BME280;45554;51.096;16.976;2022-09-12T02:28:57;100193.70;;;13.21;89.15
59686;BME280;45554;51.096;16.976;2022-09-12T02:31:43;100193.91;;;13.21;89.19
59686;BME280;45554;51.096;16.976;2022-09-12T02:37:24;100190.81;;;13.16;89.25
59686;BME280;45554;51.096;16.976;2022-09-12T02:40:07;100189.81;;;13.13;89.19
59686;BME280;45554;51.096;16.976;2022-09-12T02:42:39;100193.26;;;13.12;89.30
59686;BME280;45554;51.096;16.976;2022-09-12T02:45:09;100191.92;;;13.10;89.46
59686;BME280;45554;51.096;16.976;2022-09-12T02:48:14;100193.46;;;13.11;89.47
59686;BME280;45554;51.096;16.976;2022-09-12T02:50:45;100195.11;;;13.10;89.49
59686;BME280;45554;51.096;16.976;2022-09-12T02:53:14;100193.36;;;13.10;89.50
59686;BME280;45554;51.096;16.976;2022-09-12T02:55:41;100195.02;;;13.11;89.60
59686;BME280;45554;51.096;16.976;2022-09-12T02:58:17;100198.20;;;13.11;89.58
59686;BME280;45554;51.096;16.976;2022-09-12T03:00:55;100199.81;;;13.11;89.47
59686;BME280;45554;51.096;16.976;2022-09-12T03:09:19;100201.00;;;13.14;89.58
59686;BME280;45554;51.096;16.976;2022-09-12T03:12:03;100200.27;;;13.14;89.61
59686;BME280;45554;51.096;16.976;2022-09-12T03:14:44;100201.81;;;13.15;89.59
59686;BME280;45554;51.096;16.976;2022-09-12T03:17:36;100201.70;;;13.17;89.59
59686;BME280;45554;51.096;16.976;2022-09-12T03:20:15;100202.57;;;13.20;89.62
59686;BME280;45554;51.096;16.976;2022-09-12T03:22:53;100200.20;;;13.21;89.68
59686;BME280;45554;51.096;16.976;2022-09-12T03:25:29;100195.61;;;13.21;89.61
59686;BME280;45554;51.096;16.976;2022-09-12T03:28:05;100197.52;;;13.22;89.58
59686;BME280;45554;51.096;16.976;2022-09-12T03:30:39;100199.26;;;13.22;89.56
59686;BME280;45554;51.096;16.976;2022-09-12T03:33:14;100195.16;;;13.22;89.51
59686;BME280;45554;51.096;16.976;2022-09-12T03:35:43;100198.93;;;13.22;89.53
59686;BME280;45554;51.096;16.976;2022-09-12T03:38:11;100196.02;;;13.20;89.50
59686;BME280;45554;51.096;16.976;2022-09-12T03:40:38;100200.04;;;13.18;89.37
59686;BME280;45554;51.096;16.976;2022-09-12T03:43:08;100195.15;;;13.12;89.59
59686;BME280;45554;51.096;16.976;2022-09-12T03:45:36;100198.71;;;13.16;89.54
59686;BME280;45554;51.096;16.976;2022-09-12T03:48:04;100196.17;;;13.18;89.67
59686;BME280;45554;51.096;16.976;2022-09-12T03:50:33;100198.19;;;13.19;89.73
59686;BME280;45554;51.096;16.976;2022-09-12T03:53:02;100199.12;;;13.21;89.73
59686;BME280;45554;51.096;16.976;2022-09-12T03:55:30;100200.69;;;13.22;89.76
59686;BME280;45554;51.096;16.976;2022-09-12T03:57:59;100201.81;;;13.21;89.66
59686;BME280;45554;51.096;16.976;2022-09-12T04:00:27;100202.79;;;13.19;89.42
59686;BME280;45554;51.096;16.976;2022-09-12T04:02:57;100201.14;;;13.17;89.72
59686;BME280;45554;51.096;16.976;2022-09-12T04:05:24;100205.70;;;13.17;89.67
59686;BME280;45554;51.096;16.976;2022-09-12T04:07:52;100209.21;;;13.18;89.68
59686;BME280;45554;51.096;16.976;2022-09-12T04:10:19;100211.17;;;13.17;89.69
59686;BME280;45554;51.096;16.976;2022-09-12T04:12:47;100210.67;;;13.17;89.55
59686;BME280;45554;51.096;16.976;2022-09-12T04:15:18;100207.73;;;13.16;89.69
59686;BME280;45554;51.096;16.976;2022-09-12T04:17:46;100209.25;;;13.17;89.68
59686;BME280;45554;51.096;16.976;2022-09-12T04:20:13;100209.98;;;13.19;89.92
59686;BME280;45554;51.096;16.976;2022-09-12T04:22:41;100213.98;;;13.20;89.89
59686;BME280;45554;51.096;16.976;2022-09-12T04:25:10;100213.67;;;13.19;89.89
59686;BME280;45554;51.096;16.976;2022-09-12T04:27:42;100212.86;;;13.18;89.82
59686;BME280;45554;51.096;16.976;2022-09-12T04:30:10;100215.36;;;13.18;89.89
59686;BME280;45554;51.096;16.976;2022-09-12T04:32:39;100219.23;;;13.17;89.98
59686;BME280;45554;51.096;16.976;2022-09-12T04:35:07;100216.36;;;13.18;90.04
59686;BME280;45554;51.096;16.976;2022-09-12T04:37:35;100220.55;;;13.19;90.02
59686;BME280;45554;51.096;16.976;2022-09-12T04:40:02;100217.55;;;13.19;90.10
59686;BME280;45554;51.096;16.976;2022-09-12T04:42:31;100217.05;;;13.21;90.02
59686;BME280;45554;51.096;16.976;2022-09-12T04:44:58;100215.17;;;13.23;90.09
59686;BME280;45554;51.096;16.976;2022-09-12T04:47:27;100216.45;;;13.25;90.05
59686;BME280;45554;51.096;16.976;2022-09-12T04:49:56;100220.30;;;13.26;90.05
59686;BME280;45554;51.096;16.976;2022-09-12T04:52:26;100219.90;;;13.26;90.05
59686;BME280;45554;51.096;16.976;2022-09-12T04:54:54;100221.00;;;13.28;90.00
59686;BME280;45554;51.096;16.976;2022-09-12T04:57:21;100220.20;;;13.29;90.13
59686;BME280;45554;51.096;16.976;2022-09-12T04:59:50;100221.52;;;13.30;89.90
59686;BME280;45554;51.096;16.976;2022-09-12T05:02:17;100220.20;;;13.32;90.11
59686;BME280;45554;51.096;16.976;2022-09-12T05:04:45;100224.70;;;13.36;89.96
59686;BME280;45554;51.096;16.976;2022-09-12T05:07:15;100224.69;;;13.36;90.04
59686;BME280;45554;51.096;16.976;2022-09-12T05:09:42;100222.81;;;13.35;89.96
59686;BME280;45554;51.096;16.976;2022-09-12T05:12:10;100231.98;;;13.43;90.02
59686;BME280;45554;51.096;16.976;2022-09-12T05:14:39;100235.48;;;13.47;90.09
59686;BME280;45554;51.096;16.976;2022-09-12T05:17:07;100237.22;;;13.50;89.96
59686;BME280;45554;51.096;16.976;2022-09-12T05:19:34;100239.34;;;13.54;89.93
59686;BME280;45554;51.096;16.976;2022-09-12T05:22:02;100239.51;;;13.57;89.81
59686;BME280;45554;51.096;16.976;2022-09-12T05:24:30;100240.72;;;13.60;89.67
59686;BME280;45554;51.096;16.976;2022-09-12T05:26:59;100244.19;;;13.64;89.61
59686;BME280;45554;51.096;16.976;2022-09-12T05:29:27;100246.13;;;13.66;89.38
59686;BME280;45554;51.096;16.976;2022-09-12T05:31:57;100244.67;;;13.69;89.39
59686;BME280;45554;51.096;16.976;2022-09-12T05:34:25;100247.05;;;13.73;89.18
59686;BME280;45554;51.096;16.976;2022-09-12T05:36:53;100249.23;;;13.77;89.16
59686;BME280;45554;51.096;16.976;2022-09-12T05:39:20;100250.73;;;13.81;89.09
59686;BME280;45554;51.096;16.976;2022-09-12T05:41:49;100257.02;;;13.84;89.02
59686;BME280;45554;51.096;16.976;2022-09-12T05:44:16;100260.04;;;13.90;88.97
59686;BME280;45554;51.096;16.976;2022-09-12T05:46:44;100260.55;;;13.95;88.88
59686;BME280;45554;51.096;16.976;2022-09-12T05:49:16;100258.60;;;14.02;88.97
59686;BME280;45554;51.096;16.976;2022-09-12T05:51:45;100262.90;;;14.11;88.59
59686;BME280;45554;51.096;16.976;2022-09-12T05:54:16;100262.52;;;14.17;88.27
59686;BME280;45554;51.096;16.976;2022-09-12T05:56:44;100259.31;;;14.23;87.99
59686;BME280;45554;51.096;16.976;2022-09-12T05:59:17;100262.69;;;14.28;87.99
59686;BME280;45554;51.096;16.976;2022-09-12T06:01:46;100260.89;;;14.40;88.01
59686;BME280;45554;51.096;16.976;2022-09-12T06:04:13;100264.99;;;14.50;87.39
59686;BME280;45554;51.096;16.976;2022-09-12T06:06:43;100264.83;;;14.57;87.03
59686;BME280;45554;51.096;16.976;2022-09-12T06:09:15;100265.39;;;14.64;86.56
59686;BME280;45554;51.096;16.976;2022-09-12T06:11:44;100265.17;;;14.67;86.21
59686;BME280;45554;51.096;16.976;2022-09-12T06:14:13;100267.21;;;14.68;85.63
59686;BME280;45554;51.096;16.976;2022-09-12T06:16:40;100265.88;;;14.69;85.68
59686;BME280;45554;51.096;16.976;2022-09-12T06:19:18;100259.99;;;14.73;85.50
59686;BME280;45554;51.096;16.976;2022-09-12T06:21:46;100265.13;;;14.76;85.32
59686;BME280;45554;51.096;16.976;2022-09-12T06:24:16;100264.67;;;14.74;85.13
59686;BME280;45554;51.096;16.976;2022-09-12T06:26:43;100263.07;;;14.72;85.25
59686;BME280;45554;51.096;16.976;2022-09-12T06:29:11;100265.90;;;14.71;85.03
59686;BME280;45554;51.096;16.976;2022-09-12T06:31:39;100263.66;;;14.71;84.61
59686;BME280;45554;51.096;16.976;2022-09-12T06:34:09;100261.52;;;14.71;84.66
59686;BME280;45554;51.096;16.976;2022-09-12T06:36:44;100264.35;;;14.74;84.51
59686;BME280;45554;51.096;16.976;2022-09-12T06:39:21;100269.85;;;14.76;83.83
59686;BME280;45554;51.096;16.976;2022-09-12T06:41:50;100272.11;;;14.76;83.38
59686;BME280;45554;51.096;16.976;2022-09-12T06:44:20;100269.55;;;14.75;83.16
59686;BME280;45554;51.096;16.976;2022-09-12T06:46:49;100269.70;;;14.75;83.38
59686;BME280;45554;51.096;16.976;2022-09-12T06:49:18;100263.57;;;14.77;82.94
59686;BME280;45554;51.096;16.976;2022-09-12T06:51:48;100267.02;;;14.81;82.73
59686;BME280;45554;51.096;16.976;2022-09-12T06:54:18;100263.20;;;14.85;82.22
59686;BME280;45554;51.096;16.976;2022-09-12T06:56:49;100263.79;;;14.89;81.06
59686;BME280;45554;51.096;16.976;2022-09-12T06:59:15;100263.65;;;14.91;80.80
59686;BME280;45554;51.096;16.976;2022-09-12T07:01:43;100265.66;;;14.92;80.70
59686;BME280;45554;51.096;16.976;2022-09-12T07:04:10;100264.84;;;14.94;80.47
59686;BME280;45554;51.096;16.976;2022-09-12T07:06:39;100260.33;;;14.98;80.54
59686;BME280;45554;51.096;16.976;2022-09-12T07:09:06;100260.77;;;15.01;79.46
59686;BME280;45554;51.096;16.976;2022-09-12T07:11:36;100263.45;;;15.03;79.03
59686;BME280;45554;51.096;16.976;2022-09-12T07:14:05;100269.01;;;15.04;78.60
59686;BME280;45554;51.096;16.976;2022-09-12T07:16:38;100267.00;;;15.05;78.63
59686;BME280;45554;51.096;16.976;2022-09-12T07:19:06;100265.02;;;15.08;78.61
59686;BME280;45554;51.096;16.976;2022-09-12T07:21:33;100266.80;;;15.11;78.00
59686;BME280;45554;51.096;16.976;2022-09-12T07:24:05;100265.60;;;15.15;77.96
59686;BME280;45554;51.096;16.976;2022-09-12T07:26:34;100267.37;;;15.19;76.60
59686;BME280;45554;51.096;16.976;2022-09-12T07:29:02;100272.66;;;15.22;76.00
59686;BME280;45554;51.096;16.976;2022-09-12T07:31:49;100275.66;;;15.25;76.20
59686;BME280;45554;51.096;16.976;2022-09-12T07:34:16;100274.54;;;15.25;75.54
59686;BME280;45554;51.096;16.976;2022-09-12T07:36:43;100278.89;;;15.31;75.15
59686;BME280;45554;51.096;16.976;2022-09-12T07:39:10;100278.29;;;15.36;75.55
59686;BME280;45554;51.096;16.976;2022-09-12T07:41:38;100282.96;;;15.47;75.38
59686;BME280;45554;51.096;16.976;2022-09-12T07:44:06;100290.32;;;15.60;73.12
59686;BME280;45554;51.096;16.976;2022-09-12T07:46:33;100293.18;;;15.67;72.50
59686;BME280;45554;51.096;16.976;2022-09-12T07:49:02;100290.68;;;15.74;72.30
59686;BME280;45554;51.096;16.976;2022-09-12T07:51:30;100292.92;;;15.81;72.04
59686;BME280;45554;51.096;16.976;2022-09-12T07:53:57;100289.50;;;15.89;72.73
59686;BME280;45554;51.096;16.976;2022-09-12T07:56:25;100292.13;;;15.99;72.80
59686;BME280;45554;51.096;16.976;2022-09-12T07:58:57;100286.09;;;16.06;72.88
59686;BME280;45554;51.096;16.976;2022-09-12T08:01:25;100287.63;;;16.16;72.47
59686;BME280;45554;51.096;16.976;2022-09-12T08:03:54;100287.62;;;16.27;72.43
59686;BME280;45554;51.096;16.976;2022-09-12T08:06:23;100288.38;;;16.40;71.74
59686;BME280;45554;51.096;16.976;2022-09-12T08:08:53;100290.26;;;16.55;70.70
59686;BME280;45554;51.096;16.976;2022-09-12T08:11:22;100291.75;;;16.65;70.54
59686;BME280;45554;51.096;16.976;2022-09-12T08:13:50;100288.36;;;16.74;70.30
59686;BME280;45554;51.096;16.976;2022-09-12T08:16:26;100292.20;;;16.81;69.60
59686;BME280;45554;51.096;16.976;2022-09-12T08:18:54;100292.72;;;16.86;69.11
59686;BME280;45554;51.096;16.976;2022-09-12T08:21:26;100290.11;;;16.96;69.10
59686;BME280;45554;51.096;16.976;2022-09-12T08:23:55;100294.70;;;17.14;68.85
59686;BME280;45554;51.096;16.976;2022-09-12T08:26:22;100293.09;;;17.34;67.94
59686;BME280;45554;51.096;16.976;2022-09-12T08:28:50;100288.33;;;17.53;68.31
59686;BME280;45554;51.096;16.976;2022-09-12T08:31:20;100293.61;;;17.70;68.11
59686;BME280;45554;51.096;16.976;2022-09-12T08:33:47;100295.84;;;17.75;66.56
59686;BME280;45554;51.096;16.976;2022-09-12T08:36:20;100295.88;;;17.77;66.89
59686;BME280;45554;51.096;16.976;2022-09-12T08:38:50;100292.69;;;17.75;65.08
59686;BME280;45554;51.096;16.976;2022-09-12T08:44:22;100295.63;;;17.59;65.02
59686;BME280;45554;51.096;16.976;2022-09-12T08:52:21;100283.95;;;17.75;64.16
59686;BME280;45554;51.096;16.976;2022-09-12T08:54:49;100286.96;;;17.88;62.54
59686;BME280;45554;51.096;16.976;2022-09-12T08:57:18;100287.63;;;17.99;62.41
59686;BME280;45554;51.096;16.976;2022-09-12T08:59:45;100288.77;;;18.17;61.70
59686;BME280;45554;51.096;16.976;2022-09-12T09:05:44;100290.34;;;18.30;62.10
59686;BME280;45554;51.096;16.976;2022-09-12T09:08:32;100291.45;;;18.15;62.07
59686;BME280;45554;51.096;16.976;2022-09-12T09:13:56;100302.40;;;17.88;62.57
59686;BME280;45554;51.096;16.976;2022-09-12T09:16:47;100302.54;;;17.76;62.73
59686;BME280;45554;51.096;16.976;2022-09-12T09:19:21;100304.36;;;17.68;62.73
59686;BME280;45554;51.096;16.976;2022-09-12T09:21:59;100302.95;;;17.65;62.63
59686;BME280;45554;51.096;16.976;2022-09-12T09:24:50;100305.09;;;17.62;62.87
59686;BME280;45554;51.096;16.976;2022-09-12T09:27:22;100299.84;;;17.65;63.70
59686;BME280;45554;51.096;16.976;2022-09-12T09:30:18;100299.89;;;17.73;63.46
59686;BME280;45554;51.096;16.976;2022-09-12T09:32:50;100302.00;;;17.80;63.16
59686;BME280;45554;51.096;16.976;2022-09-12T09:38:01;100295.08;;;17.86;63.50
59686;BME280;45554;51.096;16.976;2022-09-12T09:40:44;100294.55;;;17.96;63.68
59686;BME280;45554;51.096;16.976;2022-09-12T09:43:22;100291.23;;;18.03;62.72
59686;BME280;45554;51.096;16.976;2022-09-12T09:45:51;100289.31;;;18.04;61.96
59686;BME280;45554;51.096;16.976;2022-09-12T09:48:24;100290.81;;;18.12;62.46
59686;BME280;45554;51.096;16.976;2022-09-12T09:50:53;100287.52;;;18.27;61.56
59686;BME280;45554;51.096;16.976;2022-09-12T09:53:42;100286.91;;;18.42;60.48
59686;BME280;45554;51.096;16.976;2022-09-12T09:56:27;100285.98;;;18.59;59.08
59686;BME280;45554;51.096;16.976;2022-09-12T09:58:56;100278.70;;;18.69;60.00
59686;BME280;45554;51.096;16.976;2022-09-12T10:01:23;100276.77;;;18.85;60.70
59686;BME280;45554;51.096;16.976;2022-09-12T10:03:54;100282.92;;;19.02;59.43
59686;BME280;45554;51.096;16.976;2022-09-12T10:06:25;100281.58;;;19.09;58.51
59686;BME280;45554;51.096;16.976;2022-09-12T10:11:43;100271.59;;;19.31;58.36
59686;BME280;45554;51.096;16.976;2022-09-12T10:14:33;100268.23;;;19.38;56.53
59686;BME280;45554;51.096;16.976;2022-09-12T10:17:23;100268.19;;;19.33;57.20
59686;BME280;45554;51.096;16.976;2022-09-12T10:19:50;100267.83;;;19.29;56.91
59686;BME280;45554;51.096;16.976;2022-09-12T10:22:40;100269.61;;;19.24;56.53
59686;BME280;45554;51.096;16.976;2022-09-12T10:25:15;100271.96;;;19.23;56.96
59686;BME280;45554;51.096;16.976;2022-09-12T10:27:43;100275.11;;;19.22;55.87
59686;BME280;45554;51.096;16.976;2022-09-12T10:32:42;100267.60;;;19.32;56.30
59686;BME280;45554;51.096;16.976;2022-09-12T10:35:20;100268.23;;;19.46;56.33
59686;BME280;45554;51.096;16.976;2022-09-12T10:37:56;100264.73;;;19.52;55.92
59686;BME280;45554;51.096;16.976;2022-09-12T10:40:26;100266.35;;;19.47;55.95
59686;BME280;45554;51.096;16.976;2022-09-12T10:42:58;100267.13;;;19.46;55.72
59686;BME280;45554;51.096;16.976;2022-09-12T10:45:31;100264.64;;;19.45;55.80
59686;BME280;45554;51.096;16.976;2022-09-12T10:48:00;100267.48;;;19.46;55.26
59686;BME280;45554;51.096;16.976;2022-09-12T10:50:39;100263.91;;;19.56;55.94
59686;BME280;45554;51.096;16.976;2022-09-12T10:56:09;100254.43;;;19.74;54.11
59686;BME280;45554;51.096;16.976;2022-09-12T11:09:39;100254.96;;;20.08;51.94
59686;BME280;45554;51.096;16.976;2022-09-12T11:20:20;100256.19;;;20.29;52.46
59686;BME280;45554;51.096;16.976;2022-09-12T11:25:59;100251.41;;;20.12;52.77
59686;BME280;45554;51.096;16.976;2022-09-12T11:34:47;100248.31;;;20.48;52.74
59686;BME280;45554;51.096;16.976;2022-09-12T11:39:50;100248.40;;;20.66;49.19
59686;BME280;45554;51.096;16.976;2022-09-12T11:42:28;100241.62;;;20.62;49.56
59686;BME280;45554;51.096;16.976;2022-09-12T11:45:08;100235.26;;;20.78;50.05
59686;BME280;45554;51.096;16.976;2022-09-12T11:47:39;100241.11;;;21.11;50.01
59686;BME280;45554;51.096;16.976;2022-09-12T11:50:20;100240.41;;;21.38;48.04
59686;BME280;45554;51.096;16.976;2022-09-12T11:52:49;100242.17;;;21.43;46.76
59686;BME280;45554;51.096;16.976;2022-09-12T11:55:21;100241.35;;;21.30;47.56
59686;BME280;45554;51.096;16.976;2022-09-12T11:58:00;100245.30;;;21.21;48.03
59686;BME280;45554;51.096;16.976;2022-09-12T12:00:56;100240.14;;;21.10;48.79
59686;BME280;45554;51.096;16.976;2022-09-12T12:03:33;100246.94;;;21.04;48.88
59686;BME280;45554;51.096;16.976;2022-09-12T12:06:18;100245.08;;;20.89;48.87
59686;BME280;45554;51.096;16.976;2022-09-12T12:08:47;100243.04;;;20.71;48.88
59686;BME280;45554;51.096;16.976;2022-09-12T12:11:29;100245.95;;;20.54;49.37
59686;BME280;45554;51.096;16.976;2022-09-12T12:14:04;100248.15;;;20.42;50.12
59686;BME280;45554;51.096;16.976;2022-09-12T12:16:37;100245.64;;;20.41;50.44
59686;BME280;45554;51.096;16.976;2022-09-12T12:19:27;100246.63;;;20.46;50.42
59686;BME280;45554;51.096;16.976;2022-09-12T12:22:05;100243.02;;;20.52;50.44
59686;BME280;45554;51.096;16.976;2022-09-12T12:24:32;100238.48;;;20.60;50.82
59686;BME280;45554;51.096;16.976;2022-09-12T12:27:04;100238.06;;;20.68;50.27
59686;BME280;45554;51.096;16.976;2022-09-12T12:29:48;100239.61;;;20.76;50.16
59686;BME280;45554;51.096;16.976;2022-09-12T12:34:43;100236.55;;;21.16;50.17
59686;BME280;45554;51.096;16.976;2022-09-12T12:40:21;100232.33;;;21.74;49.90
59686;BME280;45554;51.096;16.976;2022-09-12T12:47:47;100226.20;;;22.91;46.97
59686;BME280;45554;51.096;16.976;2022-09-12T12:55:23;100226.23;;;23.05;44.46
59686;BME280;45554;51.096;16.976;2022-09-12T12:57:53;100227.17;;;22.86;44.69
59686;BME280;45554;51.096;16.976;2022-09-12T13:00:28;100220.29;;;22.64;45.42
59686;BME280;45554;51.096;16.976;2022-09-12T13:03:06;100222.42;;;22.49;45.76
59686;BME280;45554;51.096;16.976;2022-09-12T13:05:43;100220.58;;;22.37;46.19
59686;BME280;45554;51.096;16.976;2022-09-12T13:11:13;100224.09;;;21.90;45.88
59686;BME280;45554;51.096;16.976;2022-09-12T13:13:50;100225.70;;;21.53;46.07
59686;BME280;45554;51.096;16.976;2022-09-12T13:16:52;100226.49;;;21.22;46.24
59686;BME280;45554;51.096;16.976;2022-09-12T13:19:27;100229.29;;;20.92;46.65
59686;BME280;45554;51.096;16.976;2022-09-12T13:22:05;100223.72;;;20.72;47.41
59686;BME280;45554;51.096;16.976;2022-09-12T13:24:41;100222.73;;;20.57;48.01
59686;BME280;45554;51.096;16.976;2022-09-12T13:27:23;100223.23;;;20.48;48.83
59686;BME280;45554;51.096;16.976;2022-09-12T13:30:07;100216.94;;;20.45;49.27
59686;BME280;45554;51.096;16.976;2022-09-12T13:32:34;100218.23;;;20.37;49.05
59686;BME280;45554;51.096;16.976;2022-09-12T13:35:17;100221.64;;;20.32;49.53
59686;BME280;45554;51.096;16.976;2022-09-12T13:37:56;100221.27;;;20.26;49.50
59686;BME280;45554;51.096;16.976;2022-09-12T13:40:56;100220.17;;;20.19;49.72
59686;BME280;45554;51.096;16.976;2022-09-12T13:43:41;100215.48;;;20.16;50.15
59686;BME280;45554;51.096;16.976;2022-09-12T13:46:13;100208.19;;;20.16;50.25
59686;BME280;45554;51.096;16.976;2022-09-12T13:48:42;100210.04;;;20.17;50.15
59686;BME280;45554;51.096;16.976;2022-09-12T13:51:22;100209.56;;;20.22;50.31
59686;BME280;45554;51.096;16.976;2022-09-12T13:53:52;100208.82;;;20.30;50.33
59686;BME280;45554;51.096;16.976;2022-09-12T13:56:21;100203.09;;;20.43;50.75
59686;BME280;45554;51.096;16.976;2022-09-12T13:58:56;100204.30;;;20.56;50.46
59686;BME280;45554;51.096;16.976;2022-09-12T14:01:35;100199.10;;;20.71;50.18
59686;BME280;45554;51.096;16.976;2022-09-12T14:06:59;100193.60;;;21.07;49.67
59686;BME280;45554;51.096;16.976;2022-09-12T14:09:31;100192.67;;;21.20;49.21
59686;BME280;45554;51.096;16.976;2022-09-12T14:11:58;100193.49;;;21.52;49.50
59686;BME280;45554;51.096;16.976;2022-09-12T14:14:34;100191.89;;;21.80;49.18
59686;BME280;45554;51.096;16.976;2022-09-12T14:17:30;100188.83;;;22.16;48.78
59686;BME280;45554;51.096;16.976;2022-09-12T14:20:07;100186.64;;;22.65;46.93
59686;BME280;45554;51.096;16.976;2022-09-12T14:22:37;100184.66;;;22.78;46.55
59686;BME280;45554;51.096;16.976;2022-09-12T14:25:05;100185.36;;;22.85;46.27
59686;BME280;45554;51.096;16.976;2022-09-12T14:27:40;100186.69;;;22.82;45.98
59686;BME280;45554;51.096;16.976;2022-09-12T14:35:36;100189.77;;;22.28;45.42
59686;BME280;45554;51.096;16.976;2022-09-12T14:38:21;100190.95;;;22.08;45.57
59686;BME280;45554;51.096;16.976;2022-09-12T14:40:59;100189.26;;;21.90;46.19
59686;BME280;45554;51.096;16.976;2022-09-12T14:43:36;100197.83;;;21.71;45.99
59686;BME280;45554;51.096;16.976;2022-09-12T14:46:15;100191.26;;;21.53;46.06
59686;BME280;45554;51.096;16.976;2022-09-12T14:48:48;100194.12;;;21.37;46.45
59686;BME280;45554;51.096;16.976;2022-09-12T14:51:27;100190.90;;;21.22;46.47
59686;BME280;45554;51.096;16.976;2022-09-12T14:53:56;100186.23;;;21.11;47.17
59686;BME280;45554;51.096;16.976;2022-09-12T14:56:53;100186.67;;;21.08;47.38
59686;BME280;45554;51.096;16.976;2022-09-12T14:59:34;100185.61;;;21.01;47.41
59686;BME280;45554;51.096;16.976;2022-09-12T15:02:21;100188.34;;;20.95;47.78